createdAt,value
2022-12-24T00:00:16.425Z,65.70
2022-12-24T00:00:47.972Z,65.70
2022-12-24T00:01:19.465Z,65.60
2022-12-24T00:01:50.933Z,65.60
2022-12-24T00:02:22.442Z,65.50
2022-12-24T00:02:54.063Z,65.50
2022-12-24T00:03:25.716Z,65.50
2022-12-24T00:03:57.278Z,65.50
2022-12-24T00:04:28.789Z,65.50
2022-12-24T00:05:01.419Z,65.50
2022-12-24T00:05:33.210Z,65.50
2022-12-24T00:06:04.691Z,65.40
2022-12-24T00:06:36.178Z,65.50
2022-12-24T00:07:07.655Z,65.50
2022-12-24T00:07:39.149Z,65.50
2022-12-24T00:08:10.631Z,65.50
2022-12-24T00:08:42.103Z,65.60
2022-12-24T00:09:13.590Z,65.50
2022-12-24T00:09:45.053Z,65.50
2022-12-24T00:10:16.534Z,65.50
2022-12-24T00:10:48.042Z,65.50
2022-12-24T00:11:19.528Z,65.50
2022-12-24T00:11:51.002Z,65.50
2022-12-24T00:12:22.474Z,65.50
2022-12-24T00:12:53.951Z,65.50
2022-12-24T00:13:25.430Z,65.50
2022-12-24T00:13:56.905Z,65.50
2022-12-24T00:14:28.399Z,65.50
2022-12-24T00:14:59.870Z,65.60
2022-12-24T00:15:31.346Z,65.50
2022-12-24T00:16:02.834Z,65.50
2022-12-24T00:16:34.336Z,65.50
2022-12-24T00:17:05.894Z,65.50
2022-12-24T00:17:37.380Z,65.50
2022-12-24T00:18:08.887Z,65.50
2022-12-24T00:18:45.949Z,65.50
2022-12-24T00:19:18.287Z,65.60
2022-12-24T00:19:49.787Z,65.60
2022-12-24T00:20:21.263Z,65.50
2022-12-24T00:20:52.747Z,65.60
2022-12-24T00:21:24.210Z,65.50
2022-12-24T00:21:55.681Z,65.60
2022-12-24T00:22:27.149Z,65.50
2022-12-24T00:22:58.622Z,65.50
2022-12-24T00:23:30.086Z,65.50
2022-12-24T00:24:01.574Z,65.60
2022-12-24T00:24:33.083Z,65.50
2022-12-24T00:25:04.575Z,65.60
2022-12-24T00:25:36.065Z,65.50
2022-12-24T00:26:07.558Z,65.50
2022-12-24T00:26:39.040Z,65.50
2022-12-24T00:27:10.518Z,65.50
2022-12-24T00:27:42.028Z,65.50
2022-12-24T00:28:13.542Z,65.60
2022-12-24T00:28:45.030Z,65.50
2022-12-24T00:29:16.503Z,65.60
2022-12-24T00:29:47.989Z,65.50
2022-12-24T00:30:19.539Z,65.60
2022-12-24T00:30:51.062Z,65.60
2022-12-24T00:31:22.655Z,65.70
2022-12-24T00:31:54.154Z,65.60
2022-12-24T00:32:25.626Z,65.50
2022-12-24T00:32:57.127Z,65.60
2022-12-24T00:33:28.777Z,65.50
2022-12-24T00:34:00.439Z,65.50
2022-12-24T00:34:31.913Z,65.50
2022-12-24T00:35:03.389Z,65.50
2022-12-24T00:35:34.881Z,65.50
2022-12-24T00:36:06.370Z,65.50
2022-12-24T00:36:37.862Z,65.50
2022-12-24T00:37:09.329Z,65.60
2022-12-24T00:37:40.792Z,65.50
2022-12-24T00:38:12.258Z,65.50
2022-12-24T00:38:43.725Z,65.50
2022-12-24T00:39:15.211Z,65.40
2022-12-24T00:39:46.704Z,65.40
2022-12-24T00:40:18.276Z,65.40
2022-12-24T00:40:49.773Z,65.40
2022-12-24T00:41:21.254Z,65.40
2022-12-24T00:41:52.722Z,65.30
2022-12-24T00:42:24.196Z,65.50
2022-12-24T00:42:55.720Z,65.40
2022-12-24T00:43:27.287Z,65.40
2022-12-24T00:43:58.789Z,65.40
2022-12-24T00:44:30.283Z,65.40
2022-12-24T00:45:01.781Z,65.40
2022-12-24T00:45:33.266Z,65.40
2022-12-24T00:46:04.910Z,65.40
2022-12-24T00:46:36.489Z,65.40
2022-12-24T00:47:11.954Z,65.40
2022-12-24T00:47:43.821Z,65.50
2022-12-24T00:48:15.310Z,65.40
2022-12-24T00:48:46.795Z,65.50
2022-12-24T00:49:18.279Z,65.50
2022-12-24T00:49:49.763Z,65.50
2022-12-24T00:50:21.254Z,65.50
2022-12-24T00:50:52.781Z,65.60
2022-12-24T00:51:24.407Z,65.50
2022-12-24T00:51:55.954Z,65.60
2022-12-24T00:52:27.420Z,65.60
2022-12-24T00:52:58.887Z,65.60
2022-12-24T00:53:30.382Z,65.50
2022-12-24T00:54:01.877Z,65.50
2022-12-24T00:54:33.341Z,65.50
2022-12-24T00:55:04.806Z,65.60
2022-12-24T00:55:36.277Z,65.60
2022-12-24T00:56:07.760Z,65.60
2022-12-24T00:56:39.235Z,65.70
2022-12-24T00:57:10.719Z,65.50
2022-12-24T00:57:42.214Z,65.50
2022-12-24T00:58:13.697Z,65.50
2022-12-24T00:58:45.187Z,65.50
2022-12-24T00:59:16.657Z,65.60
2022-12-24T00:59:48.135Z,65.60
2022-12-24T01:00:19.635Z,65.70
2022-12-24T01:00:51.105Z,65.60
2022-12-24T01:01:22.682Z,65.70
2022-12-24T01:01:54.309Z,65.60
2022-12-24T01:02:26.058Z,65.50
2022-12-24T01:02:57.870Z,65.50
2022-12-24T01:03:29.533Z,65.50
2022-12-24T01:04:01.050Z,65.60
2022-12-24T01:04:32.518Z,65.60
2022-12-24T01:05:04.066Z,65.60
2022-12-24T01:05:35.573Z,65.50
2022-12-24T01:06:07.070Z,65.50
2022-12-24T01:06:38.555Z,65.50
2022-12-24T01:07:10.041Z,65.60
2022-12-24T01:07:41.519Z,65.50
2022-12-24T01:08:12.987Z,65.50
2022-12-24T01:08:44.477Z,65.50
2022-12-24T01:09:15.959Z,65.50
2022-12-24T01:09:47.433Z,65.50
2022-12-24T01:10:18.932Z,65.50
2022-12-24T01:10:50.418Z,65.50
2022-12-24T01:11:21.897Z,65.50
2022-12-24T01:11:53.371Z,65.60
2022-12-24T01:12:24.840Z,65.50
2022-12-24T01:12:56.329Z,65.50
2022-12-24T01:13:27.794Z,65.60
2022-12-24T01:13:59.291Z,65.50
2022-12-24T01:14:30.761Z,65.50
2022-12-24T01:15:02.241Z,65.50
2022-12-24T01:15:33.831Z,65.50
2022-12-24T01:16:05.386Z,65.50
2022-12-24T01:16:36.914Z,65.50
2022-12-24T01:17:08.389Z,65.50
2022-12-24T01:17:39.871Z,65.40
2022-12-24T01:18:11.342Z,65.40
2022-12-24T01:18:42.805Z,65.40
2022-12-24T01:19:14.303Z,65.40
2022-12-24T01:19:45.818Z,65.40
2022-12-24T01:20:17.283Z,65.40
2022-12-24T01:20:48.801Z,65.40
2022-12-24T01:21:20.265Z,65.40
2022-12-24T01:21:51.743Z,65.40
2022-12-24T01:22:23.212Z,65.40
2022-12-24T01:22:54.683Z,65.40
2022-12-24T01:23:26.194Z,65.40
2022-12-24T01:23:57.719Z,65.40
2022-12-24T01:24:29.201Z,65.30
2022-12-24T01:25:00.699Z,65.40
2022-12-24T01:25:32.210Z,65.30
2022-12-24T01:26:03.677Z,65.20
2022-12-24T01:26:35.151Z,65.20
2022-12-24T01:27:06.663Z,65.20
2022-12-24T01:27:38.154Z,65.20
2022-12-24T01:28:09.637Z,65.20
2022-12-24T01:28:41.110Z,65.20
2022-12-24T01:29:12.575Z,65.20
2022-12-24T01:29:44.060Z,65.20
2022-12-24T01:30:15.593Z,65.20
2022-12-24T01:30:47.102Z,65.30
2022-12-24T01:31:18.690Z,65.30
2022-12-24T01:31:50.222Z,65.30
2022-12-24T01:32:21.726Z,66.10
2022-12-24T01:32:53.216Z,65.30
2022-12-24T01:33:24.704Z,65.30
2022-12-24T01:33:56.160Z,65.30
2022-12-24T01:34:27.647Z,65.30
2022-12-24T01:34:59.123Z,65.30
2022-12-24T01:35:30.613Z,65.40
2022-12-24T01:36:02.116Z,65.30
2022-12-24T01:36:33.602Z,65.40
2022-12-24T01:37:05.079Z,65.30
2022-12-24T01:37:36.548Z,65.40
2022-12-24T01:38:08.041Z,65.30
2022-12-24T01:38:39.534Z,65.30
2022-12-24T01:39:11.047Z,65.40
2022-12-24T01:39:42.521Z,65.30
2022-12-24T01:40:14.012Z,65.30
2022-12-24T01:40:45.481Z,65.40
2022-12-24T01:41:16.945Z,65.30
2022-12-24T01:41:48.612Z,65.30
2022-12-24T01:42:20.092Z,65.30
2022-12-24T01:42:51.576Z,65.30
2022-12-24T01:43:23.069Z,65.40
2022-12-24T01:43:54.555Z,65.40
2022-12-24T01:44:31.228Z,65.40
2022-12-24T01:45:04.843Z,65.30
2022-12-24T01:45:36.323Z,65.40
2022-12-24T01:46:07.892Z,65.30
2022-12-24T01:46:39.506Z,65.40
2022-12-24T01:47:11.162Z,65.40
2022-12-24T01:47:42.635Z,65.40
2022-12-24T01:48:14.124Z,65.40
2022-12-24T01:48:45.655Z,65.40
2022-12-24T01:49:17.144Z,65.40
2022-12-24T01:49:48.633Z,65.40
2022-12-24T01:50:20.100Z,65.40
2022-12-24T01:50:51.741Z,65.40
2022-12-24T01:51:23.211Z,65.40
2022-12-24T01:51:54.692Z,65.40
2022-12-24T01:52:26.158Z,65.40
2022-12-24T01:52:57.656Z,65.50
2022-12-24T01:53:29.127Z,65.40
2022-12-24T01:54:00.682Z,66.10
2022-12-24T01:54:32.152Z,65.40
2022-12-24T01:55:03.626Z,65.40
2022-12-24T01:55:35.122Z,65.40
2022-12-24T01:56:06.623Z,65.40
2022-12-24T01:56:38.115Z,65.40
2022-12-24T01:57:09.590Z,65.40
2022-12-24T01:57:41.302Z,65.40
2022-12-24T01:58:12.783Z,65.40
2022-12-24T01:58:44.253Z,65.40
2022-12-24T01:59:15.737Z,65.40
2022-12-24T01:59:47.211Z,65.40
2022-12-24T02:00:18.721Z,65.50
2022-12-24T02:00:50.197Z,65.40
2022-12-24T02:01:21.783Z,65.40
2022-12-24T02:01:53.424Z,65.40
2022-12-24T02:02:25.209Z,65.40
2022-12-24T02:02:56.917Z,65.40
2022-12-24T02:03:28.545Z,65.40
2022-12-24T02:04:00.040Z,65.40
2022-12-24T02:04:31.538Z,65.40
2022-12-24T02:05:03.021Z,65.40
2022-12-24T02:05:34.663Z,65.40
2022-12-24T02:06:06.131Z,65.40
2022-12-24T02:06:37.617Z,65.30
2022-12-24T02:07:09.111Z,65.20
2022-12-24T02:07:40.578Z,65.20
2022-12-24T02:08:12.069Z,65.20
2022-12-24T02:08:43.551Z,65.30
2022-12-24T02:09:15.028Z,65.20
2022-12-24T02:09:46.496Z,65.40
2022-12-24T02:10:17.981Z,65.20
2022-12-24T02:10:49.455Z,65.40
2022-12-24T02:11:20.942Z,65.20
2022-12-24T02:11:52.428Z,65.20
2022-12-24T02:12:23.909Z,65.30
2022-12-24T02:12:55.398Z,65.20
2022-12-24T02:13:26.888Z,65.30
2022-12-24T02:13:58.364Z,65.20
2022-12-24T02:14:29.826Z,65.30
2022-12-24T02:15:01.372Z,65.20
2022-12-24T02:15:32.946Z,65.20
2022-12-24T02:16:04.600Z,65.20
2022-12-24T02:16:36.163Z,65.20
2022-12-24T02:17:07.640Z,65.20
2022-12-24T02:17:39.109Z,65.20
2022-12-24T02:18:10.622Z,65.30
2022-12-24T02:18:42.208Z,65.40
2022-12-24T02:19:13.701Z,65.30
2022-12-24T02:19:45.188Z,65.40
2022-12-24T02:20:16.701Z,65.40
2022-12-24T02:20:48.166Z,65.40
2022-12-24T02:21:19.657Z,65.40
2022-12-24T02:21:51.219Z,65.40
2022-12-24T02:22:22.747Z,65.40
2022-12-24T02:22:54.216Z,65.40
2022-12-24T02:23:25.689Z,65.50
2022-12-24T02:23:57.179Z,65.40
2022-12-24T02:24:28.659Z,65.50
2022-12-24T02:25:00.144Z,65.40
2022-12-24T02:25:31.622Z,65.50
2022-12-24T02:26:03.097Z,65.50
2022-12-24T02:26:34.579Z,65.50
2022-12-24T02:27:06.054Z,65.50
2022-12-24T02:27:37.634Z,65.50
2022-12-24T02:28:09.132Z,65.50
2022-12-24T02:28:40.624Z,65.50
2022-12-24T02:29:12.164Z,65.50
2022-12-24T02:29:43.650Z,65.50
2022-12-24T02:30:15.144Z,65.50
2022-12-24T02:30:46.609Z,65.50
2022-12-24T02:31:18.121Z,65.50
2022-12-24T02:31:49.664Z,65.50
2022-12-24T02:32:21.206Z,65.50
2022-12-24T02:32:52.669Z,65.50
2022-12-24T02:33:24.135Z,65.50
2022-12-24T02:33:55.613Z,65.40
2022-12-24T02:34:27.110Z,65.50
2022-12-24T02:34:58.605Z,65.40
2022-12-24T02:35:30.155Z,65.50
2022-12-24T02:36:01.626Z,65.70
2022-12-24T02:36:33.115Z,65.40
2022-12-24T02:37:04.598Z,65.40
2022-12-24T02:37:36.110Z,65.40
2022-12-24T02:38:07.577Z,65.40
2022-12-24T02:38:39.059Z,65.40
2022-12-24T02:39:10.630Z,65.40
2022-12-24T02:39:42.099Z,65.40
2022-12-24T02:40:16.580Z,65.40
2022-12-24T02:40:48.482Z,65.50
2022-12-24T02:41:19.956Z,65.40
2022-12-24T02:41:51.425Z,65.50
2022-12-24T02:42:22.927Z,65.40
2022-12-24T02:42:54.486Z,65.40
2022-12-24T02:43:25.953Z,65.40
2022-12-24T02:43:57.422Z,65.40
2022-12-24T02:44:28.898Z,65.40
2022-12-24T02:45:00.368Z,65.40
2022-12-24T02:45:31.842Z,65.20
2022-12-24T02:46:03.311Z,65.40
2022-12-24T02:46:34.834Z,65.20
2022-12-24T02:47:06.398Z,65.30
2022-12-24T02:47:37.930Z,65.30
2022-12-24T02:48:09.400Z,65.40
2022-12-24T02:48:40.884Z,65.40
2022-12-24T02:49:12.395Z,65.40
2022-12-24T02:49:43.868Z,65.40
2022-12-24T02:50:15.334Z,65.30
2022-12-24T02:50:46.853Z,65.30
2022-12-24T02:51:18.327Z,65.30
2022-12-24T02:51:49.805Z,65.30
2022-12-24T02:52:21.297Z,65.30
2022-12-24T02:52:52.803Z,65.20
2022-12-24T02:53:24.282Z,65.50
2022-12-24T02:53:55.800Z,65.20
2022-12-24T02:54:27.267Z,65.90
2022-12-24T02:54:58.761Z,65.80
2022-12-24T02:55:30.293Z,65.80
2022-12-24T02:56:01.768Z,65.70
2022-12-24T02:56:33.244Z,65.70
2022-12-24T02:57:04.734Z,65.80
2022-12-24T02:57:36.217Z,65.80
2022-12-24T02:58:07.681Z,65.80
2022-12-24T02:58:39.174Z,65.80
2022-12-24T02:59:10.641Z,65.80
2022-12-24T02:59:42.124Z,65.90
2022-12-24T03:00:13.600Z,65.90
2022-12-24T03:00:45.123Z,65.80
2022-12-24T03:01:16.917Z,65.90
2022-12-24T03:01:48.758Z,66.00
2022-12-24T03:02:20.418Z,65.90
2022-12-24T03:02:52.036Z,65.90
2022-12-24T03:03:23.533Z,65.90
2022-12-24T03:03:55.004Z,65.90
2022-12-24T03:04:26.474Z,65.90
2022-12-24T03:04:57.966Z,65.90
2022-12-24T03:05:29.450Z,65.90
2022-12-24T03:06:00.939Z,65.90
2022-12-24T03:06:32.405Z,65.90
2022-12-24T03:07:03.893Z,65.90
2022-12-24T03:07:35.372Z,65.90
2022-12-24T03:08:06.837Z,66.00
2022-12-24T03:08:38.318Z,66.00
2022-12-24T03:09:09.808Z,66.00
2022-12-24T03:09:41.283Z,66.00
2022-12-24T03:10:12.771Z,65.90
2022-12-24T03:10:44.277Z,66.00
2022-12-24T03:11:15.750Z,65.90
2022-12-24T03:11:47.227Z,66.00
2022-12-24T03:12:18.706Z,66.00
2022-12-24T03:12:50.187Z,65.90
2022-12-24T03:13:21.673Z,66.00
2022-12-24T03:13:53.143Z,66.00
2022-12-24T03:14:24.613Z,66.00
2022-12-24T03:14:56.118Z,66.00
2022-12-24T03:15:27.620Z,66.00
2022-12-24T03:15:59.224Z,66.00
2022-12-24T03:16:30.761Z,66.00
2022-12-24T03:17:02.237Z,66.00
2022-12-24T03:17:33.720Z,66.00
2022-12-24T03:18:05.189Z,66.00
2022-12-24T03:18:36.657Z,66.00
2022-12-24T03:19:08.139Z,66.00
2022-12-24T03:19:39.618Z,66.00
2022-12-24T03:20:11.096Z,66.00
2022-12-24T03:20:42.572Z,66.10
2022-12-24T03:21:14.065Z,66.00
2022-12-24T03:21:45.554Z,66.10
2022-12-24T03:22:17.028Z,66.00
2022-12-24T03:22:48.508Z,66.00
2022-12-24T03:23:19.997Z,66.00
2022-12-24T03:23:51.495Z,66.00
2022-12-24T03:24:22.992Z,66.00
2022-12-24T03:24:54.474Z,66.10
2022-12-24T03:25:25.951Z,66.10
2022-12-24T03:25:57.446Z,66.00
2022-12-24T03:26:28.927Z,66.10
2022-12-24T03:27:00.413Z,66.00
2022-12-24T03:27:31.903Z,66.00
2022-12-24T03:28:03.399Z,66.00
2022-12-24T03:28:34.900Z,66.00
2022-12-24T03:29:06.376Z,66.10
2022-12-24T03:29:37.848Z,66.10
2022-12-24T03:30:09.333Z,66.10
2022-12-24T03:30:40.821Z,66.10
2022-12-24T03:31:12.374Z,66.10
2022-12-24T03:31:43.956Z,66.20
2022-12-24T03:32:15.511Z,66.00
2022-12-24T03:32:46.983Z,66.10
2022-12-24T03:33:18.464Z,66.10
2022-12-24T03:33:49.932Z,66.10
2022-12-24T03:34:21.400Z,66.00
2022-12-24T03:34:52.864Z,66.00
2022-12-24T03:35:24.335Z,66.00
2022-12-24T03:35:55.812Z,66.00
2022-12-24T03:36:27.296Z,65.90
2022-12-24T03:36:58.761Z,65.90
2022-12-24T03:37:30.242Z,65.90
2022-12-24T03:38:01.714Z,65.90
2022-12-24T03:38:33.220Z,65.90
2022-12-24T03:39:04.698Z,65.80
2022-12-24T03:39:36.195Z,65.30
2022-12-24T03:40:07.679Z,65.20
2022-12-24T03:40:39.166Z,65.20
2022-12-24T03:41:10.657Z,65.20
2022-12-24T03:41:42.150Z,65.20
2022-12-24T03:42:13.625Z,65.20
2022-12-24T03:42:45.100Z,65.20
2022-12-24T03:43:16.587Z,65.20
2022-12-24T03:43:48.100Z,65.30
2022-12-24T03:44:19.573Z,65.20
2022-12-24T03:44:51.042Z,65.30
2022-12-24T03:45:22.562Z,65.30
2022-12-24T03:45:54.169Z,65.40
2022-12-24T03:46:25.758Z,65.40
2022-12-24T03:46:57.258Z,65.40
2022-12-24T03:47:28.745Z,65.40
2022-12-24T03:48:00.223Z,65.40
2022-12-24T03:48:32.891Z,65.40
2022-12-24T03:49:04.567Z,66.20
2022-12-24T03:49:36.065Z,65.40
2022-12-24T03:50:07.557Z,65.50
2022-12-24T03:50:39.028Z,65.40
2022-12-24T03:51:10.495Z,65.40
2022-12-24T03:51:41.962Z,65.40
2022-12-24T03:52:13.453Z,65.50
2022-12-24T03:52:44.929Z,65.50
2022-12-24T03:53:16.404Z,66.30
2022-12-24T03:53:47.868Z,65.50
2022-12-24T03:54:19.358Z,65.60
2022-12-24T03:54:50.834Z,65.50
2022-12-24T03:55:22.312Z,65.50
2022-12-24T03:55:53.791Z,65.50
2022-12-24T03:56:25.272Z,65.50
2022-12-24T03:56:56.776Z,65.60
2022-12-24T03:57:28.272Z,65.60
2022-12-24T03:57:59.750Z,65.50
2022-12-24T03:58:31.235Z,65.50
2022-12-24T03:59:02.726Z,65.50
2022-12-24T03:59:34.242Z,65.60
2022-12-24T04:00:05.704Z,65.60
2022-12-24T04:00:37.249Z,65.60
2022-12-24T04:01:08.798Z,65.50
2022-12-24T04:01:40.428Z,65.60
2022-12-24T04:02:12.189Z,65.60
2022-12-24T04:02:43.989Z,65.60
2022-12-24T04:03:15.596Z,65.50
2022-12-24T04:03:47.117Z,65.50
2022-12-24T04:04:18.595Z,65.50
2022-12-24T04:04:50.080Z,65.50
2022-12-24T04:05:21.552Z,65.50
2022-12-24T04:05:53.016Z,65.50
2022-12-24T04:06:24.492Z,65.50
2022-12-24T04:06:55.982Z,65.50
2022-12-24T04:07:27.466Z,65.50
2022-12-24T04:07:58.929Z,65.50
2022-12-24T04:08:30.406Z,65.50
2022-12-24T04:09:02.125Z,65.50
2022-12-24T04:09:33.603Z,65.50
2022-12-24T04:10:05.081Z,65.50
2022-12-24T04:10:36.588Z,65.60
2022-12-24T04:11:10.099Z,65.50
2022-12-24T04:11:41.726Z,65.50
2022-12-24T04:12:13.208Z,65.60
2022-12-24T04:12:44.687Z,65.60
2022-12-24T04:13:16.153Z,65.50
2022-12-24T04:13:47.626Z,65.60
2022-12-24T04:14:19.105Z,65.50
2022-12-24T04:14:50.615Z,65.50
2022-12-24T04:15:22.093Z,65.70
2022-12-24T04:15:53.563Z,65.60
2022-12-24T04:16:25.110Z,65.40
2022-12-24T04:16:56.699Z,65.40
2022-12-24T04:17:28.225Z,65.40
2022-12-24T04:17:59.716Z,65.40
2022-12-24T04:18:31.196Z,65.50
2022-12-24T04:19:02.664Z,65.40
2022-12-24T04:19:34.124Z,65.50
2022-12-24T04:20:05.587Z,65.40
2022-12-24T04:20:37.067Z,65.40
2022-12-24T04:21:08.536Z,65.40
2022-12-24T04:21:40.029Z,65.50
2022-12-24T04:22:11.520Z,65.40
2022-12-24T04:22:42.995Z,65.50
2022-12-24T04:23:14.461Z,65.40
2022-12-24T04:23:45.945Z,65.40
2022-12-24T04:24:17.435Z,65.40
2022-12-24T04:24:48.921Z,65.40
2022-12-24T04:25:20.419Z,65.40
2022-12-24T04:25:51.969Z,65.40
2022-12-24T04:26:23.452Z,65.40
2022-12-24T04:26:54.925Z,65.30
2022-12-24T04:27:30.418Z,65.20
2022-12-24T04:28:02.356Z,65.40
2022-12-24T04:28:33.836Z,65.40
2022-12-24T04:29:05.315Z,65.40
2022-12-24T04:29:36.779Z,65.50
2022-12-24T04:30:08.273Z,65.40
2022-12-24T04:30:39.943Z,65.40
2022-12-24T04:31:11.438Z,65.40
2022-12-24T04:31:42.930Z,65.40
2022-12-24T04:32:14.480Z,65.50
2022-12-24T04:32:46.004Z,65.40
2022-12-24T04:33:17.511Z,65.50
2022-12-24T04:33:49.002Z,65.50
2022-12-24T04:34:20.536Z,65.40
2022-12-24T04:34:52.032Z,65.40
2022-12-24T04:35:23.500Z,65.50
2022-12-24T04:35:54.979Z,65.50
2022-12-24T04:36:26.451Z,65.50
2022-12-24T04:36:57.947Z,65.50
2022-12-24T04:37:29.501Z,65.40
2022-12-24T04:38:00.968Z,65.40
2022-12-24T04:38:32.428Z,65.50
2022-12-24T04:39:03.894Z,65.50
2022-12-24T04:39:35.362Z,65.40
2022-12-24T04:40:06.849Z,65.40
2022-12-24T04:40:38.423Z,65.40
2022-12-24T04:41:09.922Z,65.40
2022-12-24T04:41:41.409Z,65.40
2022-12-24T04:42:12.874Z,65.40
2022-12-24T04:42:44.345Z,65.50
2022-12-24T04:43:15.821Z,65.40
2022-12-24T04:43:47.312Z,65.40
2022-12-24T04:44:18.788Z,65.50
2022-12-24T04:44:50.271Z,66.20
2022-12-24T04:45:21.737Z,65.50
2022-12-24T04:45:53.271Z,65.40
2022-12-24T04:46:24.902Z,65.50
2022-12-24T04:46:56.512Z,65.50
2022-12-24T04:47:27.992Z,65.50
2022-12-24T04:47:59.470Z,65.50
2022-12-24T04:48:30.946Z,65.50
2022-12-24T04:49:02.435Z,65.50
2022-12-24T04:49:33.908Z,65.40
2022-12-24T04:50:05.380Z,65.50
2022-12-24T04:50:36.851Z,65.50
2022-12-24T04:51:08.328Z,65.50
2022-12-24T04:51:39.798Z,65.50
2022-12-24T04:52:11.296Z,65.50
2022-12-24T04:52:42.795Z,65.50
2022-12-24T04:53:14.283Z,65.50
2022-12-24T04:53:45.771Z,65.50
2022-12-24T04:54:17.273Z,65.50
2022-12-24T04:54:48.751Z,65.50
2022-12-24T04:55:20.233Z,65.50
2022-12-24T04:55:51.711Z,65.60
2022-12-24T04:56:23.185Z,65.50
2022-12-24T04:56:54.670Z,65.50
2022-12-24T04:57:26.160Z,65.50
2022-12-24T04:57:57.643Z,65.50
2022-12-24T04:58:29.144Z,65.60
2022-12-24T04:59:00.626Z,65.50
2022-12-24T04:59:32.113Z,65.50
2022-12-24T05:00:03.590Z,65.60
2022-12-24T05:00:35.062Z,65.50
2022-12-24T05:01:06.652Z,65.60
2022-12-24T05:01:38.341Z,65.60
2022-12-24T05:02:09.989Z,65.60
2022-12-24T05:02:41.735Z,65.60
2022-12-24T05:03:13.321Z,65.60
2022-12-24T05:03:44.831Z,65.60
2022-12-24T05:04:16.316Z,65.50
2022-12-24T05:04:47.844Z,65.60
2022-12-24T05:05:19.314Z,65.60
2022-12-24T05:05:52.311Z,65.50
2022-12-24T05:06:26.642Z,65.50
2022-12-24T05:06:58.113Z,65.50
2022-12-24T05:07:29.577Z,65.50
2022-12-24T05:08:01.050Z,65.50
2022-12-24T05:08:32.570Z,65.50
2022-12-24T05:09:04.051Z,65.50
2022-12-24T05:09:35.536Z,65.50
2022-12-24T05:10:07.019Z,65.50
2022-12-24T05:10:38.505Z,65.50
2022-12-24T05:11:09.986Z,65.40
2022-12-24T05:11:41.464Z,65.40
2022-12-24T05:12:12.938Z,65.40
2022-12-24T05:12:44.407Z,65.40
2022-12-24T05:13:15.920Z,65.50
2022-12-24T05:13:48.164Z,65.40
2022-12-24T05:14:19.839Z,65.40
2022-12-24T05:14:51.305Z,65.40
2022-12-24T05:15:22.785Z,65.40
2022-12-24T05:15:54.311Z,65.40
2022-12-24T05:16:25.854Z,65.40
2022-12-24T05:16:57.498Z,65.40
2022-12-24T05:17:29.038Z,65.40
2022-12-24T05:18:00.613Z,65.40
2022-12-24T05:18:32.116Z,65.40
2022-12-24T05:19:03.609Z,65.40
2022-12-24T05:19:35.100Z,65.50
2022-12-24T05:20:06.574Z,65.50
2022-12-24T05:20:38.051Z,65.50
2022-12-24T05:21:09.656Z,65.50
2022-12-24T05:21:41.254Z,65.50
2022-12-24T05:22:12.749Z,65.50
2022-12-24T05:22:44.232Z,65.50
2022-12-24T05:23:15.713Z,65.50
2022-12-24T05:23:47.208Z,65.50
2022-12-24T05:24:18.696Z,65.50
2022-12-24T05:24:50.197Z,65.60
2022-12-24T05:25:21.745Z,65.50
2022-12-24T05:25:53.344Z,65.50
2022-12-24T05:26:24.841Z,65.50
2022-12-24T05:26:56.325Z,65.60
2022-12-24T05:27:27.860Z,65.50
2022-12-24T05:27:59.327Z,65.50
2022-12-24T05:28:30.804Z,65.70
2022-12-24T05:29:02.282Z,65.70
2022-12-24T05:29:33.755Z,65.60
2022-12-24T05:30:05.229Z,65.70
2022-12-24T05:30:36.776Z,65.60
2022-12-24T05:31:08.394Z,65.70
2022-12-24T05:31:39.922Z,65.70
2022-12-24T05:32:11.399Z,65.60
2022-12-24T05:32:42.880Z,65.60
2022-12-24T05:33:14.352Z,66.40
2022-12-24T05:33:45.826Z,65.60
2022-12-24T05:34:17.321Z,65.60
2022-12-24T05:34:48.792Z,65.60
2022-12-24T05:35:20.289Z,65.50
2022-12-24T05:35:51.766Z,65.50
2022-12-24T05:36:23.240Z,66.40
2022-12-24T05:36:54.713Z,65.50
2022-12-24T05:37:26.191Z,65.50
2022-12-24T05:37:57.670Z,65.50
2022-12-24T05:38:29.147Z,65.50
2022-12-24T05:39:00.638Z,65.50
2022-12-24T05:39:32.123Z,65.50
2022-12-24T05:40:03.609Z,65.50
2022-12-24T05:40:35.084Z,65.50
2022-12-24T05:41:06.569Z,65.50
2022-12-24T05:41:38.053Z,65.50
2022-12-24T05:42:09.547Z,65.50
2022-12-24T05:42:41.091Z,65.50
2022-12-24T05:43:12.570Z,65.50
2022-12-24T05:43:44.119Z,65.50
2022-12-24T05:44:15.602Z,65.50
2022-12-24T05:44:47.097Z,65.50
2022-12-24T05:45:18.590Z,65.60
2022-12-24T05:45:50.089Z,65.50
2022-12-24T05:46:21.679Z,65.50
2022-12-24T05:46:53.253Z,65.50
2022-12-24T05:47:24.789Z,65.50
2022-12-24T05:47:56.284Z,65.50
2022-12-24T05:48:27.809Z,65.50
2022-12-24T05:48:59.281Z,65.60
2022-12-24T05:49:30.772Z,65.50
2022-12-24T05:50:02.253Z,65.50
2022-12-24T05:50:33.777Z,65.50
2022-12-24T05:51:05.261Z,65.50
2022-12-24T05:51:36.739Z,65.60
2022-12-24T05:52:09.447Z,65.50
2022-12-24T05:52:40.910Z,65.50
2022-12-24T05:53:12.432Z,65.50
2022-12-24T05:53:43.901Z,65.50
2022-12-24T05:54:15.410Z,65.40
2022-12-24T05:54:46.917Z,65.50
2022-12-24T05:55:18.403Z,65.50
2022-12-24T05:55:49.883Z,65.40
2022-12-24T05:56:21.369Z,65.40
2022-12-24T05:56:52.862Z,65.50
2022-12-24T05:57:24.480Z,65.40
2022-12-24T05:57:55.963Z,65.50
2022-12-24T05:58:27.433Z,65.50
2022-12-24T05:58:58.903Z,65.50
2022-12-24T05:59:30.378Z,65.50
2022-12-24T06:00:01.841Z,65.50
2022-12-24T06:00:33.332Z,65.50
2022-12-24T06:01:04.838Z,65.50
2022-12-24T06:01:36.469Z,65.50
2022-12-24T06:02:08.070Z,65.50
2022-12-24T06:02:39.594Z,65.60
2022-12-24T06:03:11.105Z,65.50
2022-12-24T06:03:42.594Z,65.50
2022-12-24T06:04:14.122Z,65.50
2022-12-24T06:04:45.675Z,66.30
2022-12-24T06:05:17.177Z,65.50
2022-12-24T06:05:48.656Z,65.50
2022-12-24T06:06:20.129Z,65.60
2022-12-24T06:06:51.627Z,65.50
2022-12-24T06:07:23.145Z,65.50
2022-12-24T06:07:54.636Z,65.50
2022-12-24T06:08:26.140Z,65.50
2022-12-24T06:08:57.625Z,65.50
2022-12-24T06:09:29.126Z,65.50
2022-12-24T06:10:00.744Z,65.50
2022-12-24T06:10:32.380Z,65.50
2022-12-24T06:11:03.873Z,65.50
2022-12-24T06:11:35.377Z,65.50
2022-12-24T06:12:06.867Z,65.50
2022-12-24T06:12:38.343Z,65.50
2022-12-24T06:13:09.885Z,65.50
2022-12-24T06:13:41.487Z,65.50
2022-12-24T06:14:12.953Z,65.50
2022-12-24T06:14:44.443Z,65.50
2022-12-24T06:15:21.876Z,65.50
2022-12-24T06:15:55.344Z,65.50
2022-12-24T06:16:26.953Z,65.60
2022-12-24T06:16:58.551Z,65.50
2022-12-24T06:17:30.030Z,65.50
2022-12-24T06:18:01.496Z,65.50
2022-12-24T06:18:32.976Z,65.50
2022-12-24T06:19:04.532Z,65.60
2022-12-24T06:19:36.009Z,65.50
2022-12-24T06:20:07.500Z,65.60
2022-12-24T06:20:38.972Z,66.10
2022-12-24T06:21:10.470Z,65.60
2022-12-24T06:21:41.948Z,65.60
2022-12-24T06:22:13.430Z,65.60
2022-12-24T06:22:44.899Z,65.60
2022-12-24T06:23:16.403Z,65.50
2022-12-24T06:23:47.870Z,65.60
2022-12-24T06:24:19.407Z,65.60
2022-12-24T06:24:50.873Z,65.60
2022-12-24T06:25:22.352Z,65.70
2022-12-24T06:25:53.827Z,65.70
2022-12-24T06:26:25.314Z,65.70
2022-12-24T06:26:56.785Z,65.70
2022-12-24T06:27:28.267Z,65.70
2022-12-24T06:27:59.782Z,65.70
2022-12-24T06:28:31.251Z,65.70
2022-12-24T06:29:02.731Z,65.70
2022-12-24T06:29:34.216Z,65.60
2022-12-24T06:30:05.683Z,65.60
2022-12-24T06:30:37.151Z,65.60
2022-12-24T06:31:08.661Z,65.70
2022-12-24T06:31:40.207Z,65.60
2022-12-24T06:32:11.753Z,65.50
2022-12-24T06:32:43.243Z,65.50
2022-12-24T06:33:14.718Z,65.70
2022-12-24T06:33:46.234Z,65.60
2022-12-24T06:34:17.843Z,65.50
2022-12-24T06:34:49.326Z,65.60
2022-12-24T06:35:20.796Z,65.60
2022-12-24T06:35:52.259Z,65.70
2022-12-24T06:36:23.854Z,65.60
2022-12-24T06:36:55.364Z,65.60
2022-12-24T06:37:26.830Z,65.50
2022-12-24T06:37:58.316Z,65.50
2022-12-24T06:38:29.797Z,65.60
2022-12-24T06:39:01.273Z,65.50
2022-12-24T06:39:32.810Z,65.50
2022-12-24T06:40:04.362Z,65.40
2022-12-24T06:40:35.846Z,65.40
2022-12-24T06:41:07.338Z,65.40
2022-12-24T06:41:38.823Z,65.50
2022-12-24T06:42:10.296Z,65.40
2022-12-24T06:42:41.772Z,65.50
2022-12-24T06:43:13.254Z,65.40
2022-12-24T06:43:44.732Z,65.40
2022-12-24T06:44:16.206Z,65.40
2022-12-24T06:44:47.702Z,65.40
2022-12-24T06:45:19.180Z,65.40
2022-12-24T06:45:50.662Z,65.40
2022-12-24T06:46:22.252Z,65.40